createdAt,value
2023-01-17T00:02:20.690Z,1.73
2023-01-17T00:05:06.473Z,1.66
2023-01-17T00:07:52.401Z,1.66
2023-01-17T00:10:21.500Z,1.66
2023-01-17T00:12:50.536Z,1.56
2023-01-17T00:15:19.881Z,1.58
2023-01-17T00:17:47.641Z,1.59
2023-01-17T00:20:34.526Z,1.50
2023-01-17T00:23:20.481Z,1.41
2023-01-17T00:26:05.568Z,1.34
2023-01-17T00:28:37.803Z,1.46
2023-01-17T00:31:05.939Z,1.49
2023-01-17T00:33:33.226Z,1.58
2023-01-17T00:36:01.042Z,1.67
2023-01-17T00:38:30.764Z,1.79
2023-01-17T00:41:09.785Z,1.84
2023-01-17T00:43:56.065Z,1.92
2023-01-17T00:46:41.576Z,1.99
2023-01-17T00:49:27.695Z,2.03
2023-01-17T00:52:13.448Z,2.07
2023-01-17T00:54:58.894Z,2.14
2023-01-17T00:57:44.584Z,2.20
2023-01-17T01:00:31.218Z,2.20
2023-01-17T01:03:17.784Z,2.24
2023-01-17T01:06:03.315Z,2.26
2023-01-17T01:08:49.301Z,2.23
2023-01-17T01:11:38.115Z,2.29
2023-01-17T01:14:25.818Z,2.32
2023-01-17T01:17:11.539Z,2.34
2023-01-17T01:19:57.216Z,2.35
2023-01-17T01:22:42.983Z,2.38
2023-01-17T01:25:28.515Z,2.43
2023-01-17T01:28:25.185Z,2.41
2023-01-17T01:31:10.821Z,2.40
2023-01-17T01:33:38.054Z,2.38
2023-01-17T01:36:07.974Z,2.30
2023-01-17T01:38:35.308Z,2.36
2023-01-17T01:41:02.918Z,2.43
2023-01-17T01:43:48.869Z,2.50
2023-01-17T01:46:38.673Z,2.50
2023-01-17T01:49:05.534Z,2.51
2023-01-17T01:51:36.383Z,2.55
2023-01-17T01:54:25.758Z,2.59
2023-01-17T01:56:53.677Z,2.66
2023-01-17T01:59:21.496Z,2.68
2023-01-17T02:01:50.675Z,2.73
2023-01-17T02:04:21.018Z,2.73
2023-01-17T02:06:50.348Z,2.82
2023-01-17T02:09:18.307Z,2.85
2023-01-17T02:11:46.559Z,3.03
2023-01-17T02:14:18.105Z,3.20
2023-01-17T02:17:13.301Z,3.22
2023-01-17T02:19:59.084Z,3.19
2023-01-17T02:22:59.427Z,3.19
2023-01-17T02:25:38.280Z,3.17
2023-01-17T02:28:24.474Z,3.21
2023-01-17T02:31:17.878Z,3.19
2023-01-17T02:34:04.948Z,3.20
2023-01-17T02:37:04.088Z,3.19
2023-01-17T02:39:37.275Z,3.19
2023-01-17T02:42:10.073Z,3.17
2023-01-17T02:44:44.534Z,3.17
2023-01-17T02:47:26.432Z,3.12
2023-01-17T02:49:56.913Z,3.19
2023-01-17T02:52:30.819Z,3.17
2023-01-17T02:55:16.892Z,3.21
2023-01-17T02:57:49.880Z,3.26
2023-01-17T03:00:29.073Z,3.26
2023-01-17T03:03:07.197Z,3.25
2023-01-17T03:06:02.372Z,3.15
2023-01-17T03:08:32.170Z,3.01
2023-01-17T03:10:59.180Z,2.98
2023-01-17T03:13:26.167Z,2.90
2023-01-17T03:15:53.296Z,2.81
2023-01-17T03:18:20.211Z,2.74
2023-01-17T03:20:47.296Z,2.72
2023-01-17T03:23:14.334Z,2.72
2023-01-17T03:25:42.572Z,2.69
2023-01-17T03:28:11.230Z,2.65
2023-01-17T03:30:40.618Z,2.59
2023-01-17T03:33:08.177Z,2.53
2023-01-17T03:35:35.331Z,2.46
2023-01-17T03:38:02.315Z,2.47
2023-01-17T03:40:31.988Z,2.39
2023-01-17T03:42:59.145Z,2.41
2023-01-17T03:45:29.236Z,2.41
2023-01-17T03:47:58.626Z,2.43
2023-01-17T03:50:26.400Z,2.42
2023-01-17T03:52:53.555Z,2.40
2023-01-17T03:55:20.673Z,2.35
2023-01-17T03:57:47.702Z,2.38
2023-01-17T04:00:15.155Z,2.29
2023-01-17T04:02:44.928Z,2.25
2023-01-17T04:05:17.616Z,2.21
2023-01-17T04:07:46.156Z,2.22
2023-01-17T04:10:13.251Z,2.24
2023-01-17T04:12:40.512Z,2.21
2023-01-17T04:15:08.300Z,2.16
2023-01-17T04:17:35.639Z,2.01
2023-01-17T04:20:03.297Z,1.99
2023-01-17T04:22:32.612Z,2.00
2023-01-17T04:25:00.251Z,2.03
2023-01-17T04:27:27.515Z,2.10
2023-01-17T04:30:02.275Z,2.10
2023-01-17T04:32:32.342Z,2.14
2023-01-17T04:34:59.392Z,2.13
2023-01-17T04:37:29.332Z,2.09
2023-01-17T04:39:56.705Z,2.09
2023-01-17T04:42:26.921Z,2.10
2023-01-17T04:44:57.802Z,2.08
2023-01-17T04:47:24.937Z,2.10
2023-01-17T04:49:52.373Z,2.18
2023-01-17T04:52:20.904Z,2.24
2023-01-17T04:54:49.612Z,2.26
2023-01-17T04:57:20.509Z,2.32
2023-01-17T04:59:47.904Z,2.35
2023-01-17T05:02:17.845Z,2.36
2023-01-17T05:04:45.215Z,2.28
2023-01-17T05:07:12.415Z,2.34
2023-01-17T05:09:40.017Z,2.36
2023-01-17T05:12:07.230Z,2.42
2023-01-17T05:14:37.197Z,2.46
2023-01-17T05:17:04.762Z,2.47
2023-01-17T05:19:31.973Z,2.56
2023-01-17T05:22:04.415Z,2.59
2023-01-17T05:24:32.503Z,2.63
2023-01-17T05:27:03.377Z,2.64
2023-01-17T05:29:36.133Z,2.59
2023-01-17T05:32:12.827Z,2.76
2023-01-17T05:34:40.306Z,3.40
2023-01-17T05:37:07.420Z,4.87
2023-01-17T05:45:52.467Z,7.94
2023-01-17T05:51:19.382Z,8.37
2023-01-17T05:53:51.503Z,8.55
2023-01-17T05:56:31.185Z,8.59
2023-01-17T05:59:06.303Z,8.69
2023-01-17T06:01:42.332Z,8.79
2023-01-17T06:04:10.016Z,8.99
2023-01-17T06:06:37.185Z,9.09
2023-01-17T06:09:04.579Z,9.13
2023-01-17T06:11:31.911Z,9.25
2023-01-17T06:13:59.265Z,9.35
2023-01-17T06:16:28.906Z,9.38
2023-01-17T06:18:56.403Z,9.45
2023-01-17T06:21:23.721Z,9.45
2023-01-17T06:23:50.917Z,9.43
2023-01-17T06:26:22.355Z,9.51
2023-01-17T06:28:56.627Z,9.58
2023-01-17T06:31:23.921Z,9.66
2023-01-17T06:33:51.383Z,9.71
2023-01-17T06:36:31.320Z,9.79
2023-01-17T06:39:00.685Z,9.79
2023-01-17T06:41:30.722Z,9.82
2023-01-17T06:44:05.289Z,9.88
2023-01-17T06:46:36.573Z,9.87
2023-01-17T06:49:06.762Z,9.88
2023-01-17T06:51:33.908Z,9.96
2023-01-17T06:54:01.408Z,10.05
2023-01-17T06:56:31.777Z,10.06
2023-01-17T06:58:58.932Z,10.06
2023-01-17T07:01:26.324Z,10.04
2023-01-17T07:03:53.656Z,10.11
2023-01-17T07:06:21.428Z,10.12
2023-01-17T07:08:49.162Z,10.14
2023-01-17T07:11:16.429Z,10.24
2023-01-17T07:13:43.554Z,10.28
2023-01-17T07:16:10.554Z,10.36
2023-01-17T07:18:39.886Z,10.37
2023-01-17T07:21:16.068Z,10.38
2023-01-17T07:23:43.243Z,10.41
2023-01-17T07:26:13.528Z,10.52
2023-01-17T07:28:40.623Z,10.44
2023-01-17T07:31:08.686Z,10.38
2023-01-17T07:33:36.034Z,10.21
2023-01-17T07:36:05.445Z,10.13
2023-01-17T07:38:32.612Z,10.12
2023-01-17T07:41:00.468Z,10.12
2023-01-17T07:43:27.697Z,10.22
2023-01-17T07:45:55.042Z,10.39
2023-01-17T07:48:25.562Z,10.53
2023-01-17T07:50:56.363Z,10.69
2023-01-17T07:53:24.922Z,10.89
2023-01-17T07:55:52.102Z,11.17
2023-01-17T07:58:26.101Z,11.34
2023-01-17T08:00:53.144Z,11.48
2023-01-17T08:03:20.357Z,11.48
2023-01-17T08:05:57.865Z,11.48
2023-01-17T08:08:25.295Z,11.45
2023-01-17T08:10:54.457Z,11.43
2023-01-17T08:13:24.575Z,11.42
2023-01-17T08:16:00.511Z,11.49
2023-01-17T08:18:28.645Z,11.50
2023-01-17T08:20:56.604Z,11.58
2023-01-17T08:23:28.552Z,11.69
2023-01-17T08:26:00.943Z,11.59
2023-01-17T08:28:28.188Z,11.73
2023-01-17T08:30:56.577Z,12.02
2023-01-17T08:33:23.742Z,12.36
2023-01-17T08:35:57.258Z,12.35
2023-01-17T08:38:24.272Z,12.32
2023-01-17T08:40:51.500Z,12.26
2023-01-17T08:43:18.492Z,12.11
2023-01-17T08:45:47.372Z,12.03
2023-01-17T08:48:15.363Z,12.00
2023-01-17T08:50:44.274Z,12.02
2023-01-17T08:53:12.573Z,11.98
2023-01-17T08:55:41.298Z,11.92
2023-01-17T08:58:13.128Z,11.95
2023-01-17T09:00:40.392Z,12.12
2023-01-17T09:03:10.672Z,12.09
2023-01-17T09:05:40.557Z,12.00
2023-01-17T09:08:07.965Z,12.37
2023-01-17T09:10:35.274Z,12.35
2023-01-17T09:13:02.639Z,12.47
2023-01-17T09:15:30.388Z,12.41
2023-01-17T09:17:58.883Z,12.30
2023-01-17T09:20:30.274Z,12.34
2023-01-17T09:23:00.139Z,12.43
2023-01-17T09:25:28.643Z,12.39
2023-01-17T09:27:58.030Z,12.52
2023-01-17T09:30:25.818Z,12.40
2023-01-17T09:32:55.970Z,12.47
2023-01-17T09:35:25.828Z,12.64
2023-01-17T09:37:57.257Z,12.62
2023-01-17T09:40:26.825Z,12.57
2023-01-17T09:42:59.076Z,12.46
2023-01-17T09:45:29.490Z,12.47
2023-01-17T09:47:56.964Z,12.35
2023-01-17T09:50:40.604Z,12.46
2023-01-17T09:53:13.660Z,12.47
2023-01-17T09:55:59.059Z,12.36
2023-01-17T09:58:35.926Z,12.28
2023-01-17T10:01:15.935Z,12.31
2023-01-17T10:03:49.353Z,12.42
2023-01-17T10:06:20.624Z,12.59
2023-01-17T10:09:00.879Z,12.55
2023-01-17T10:11:41.560Z,12.44
2023-01-17T10:14:18.148Z,12.42
2023-01-17T10:16:53.251Z,12.38
2023-01-17T10:19:53.693Z,12.35
2023-01-17T10:22:29.465Z,12.26
2023-01-17T10:25:05.338Z,12.40
2023-01-17T10:27:38.933Z,12.57
2023-01-17T10:30:25.786Z,12.53
2023-01-17T10:32:53.212Z,12.69
2023-01-17T10:35:27.938Z,12.79
2023-01-17T10:37:57.030Z,12.90
2023-01-17T10:40:32.087Z,12.85
2023-01-17T10:43:40.499Z,12.93
2023-01-17T10:46:19.700Z,13.06
2023-01-17T10:48:49.755Z,13.12
2023-01-17T10:51:22.131Z,13.00
2023-01-17T10:54:17.545Z,13.02
2023-01-17T10:56:44.666Z,13.12
2023-01-17T10:59:27.462Z,13.10
2023-01-17T11:01:54.784Z,13.16
2023-01-17T11:04:23.918Z,13.23
2023-01-17T11:07:27.202Z,13.35
2023-01-17T11:09:58.091Z,13.38
2023-01-17T11:12:25.067Z,13.39
2023-01-17T11:15:06.597Z,13.51
2023-01-17T11:17:34.192Z,13.53
2023-01-17T11:20:36.465Z,13.34
2023-01-17T11:23:30.294Z,13.37
2023-01-17T11:26:07.732Z,13.39
2023-01-17T11:28:39.681Z,13.51
2023-01-17T11:31:31.472Z,13.55
2023-01-17T11:34:15.849Z,13.56
2023-01-17T11:36:43.035Z,13.57
2023-01-17T11:39:19.189Z,13.59
2023-01-17T11:41:52.216Z,13.54
2023-01-17T11:44:29.883Z,13.51
2023-01-17T11:47:12.305Z,13.59
2023-01-17T11:49:44.569Z,13.71
2023-01-17T11:52:18.197Z,13.58
2023-01-17T11:54:47.383Z,13.60
2023-01-17T11:57:24.247Z,13.65
2023-01-17T11:59:56.210Z,13.61
2023-01-17T12:02:47.568Z,13.51
2023-01-17T12:05:26.957Z,13.51
2023-01-17T12:08:09.202Z,13.45
2023-01-17T12:10:59.451Z,13.49
2023-01-17T12:14:01.588Z,13.42
2023-01-17T12:16:56.371Z,13.42
2023-01-17T12:19:32.348Z,13.40
2023-01-17T12:22:13.093Z,13.41
2023-01-17T12:24:46.207Z,13.27
2023-01-17T12:27:34.805Z,13.27
2023-01-17T12:30:04.736Z,13.34
2023-01-17T12:32:40.640Z,13.34
2023-01-17T12:35:15.626Z,13.45
2023-01-17T12:37:45.301Z,13.58
2023-01-17T12:40:40.219Z,13.56
2023-01-17T12:43:27.303Z,13.60
2023-01-17T12:45:54.803Z,13.72
2023-01-17T12:48:23.573Z,13.81
2023-01-17T12:51:14.399Z,13.94
2023-01-17T12:53:55.303Z,13.94
2023-01-17T12:56:30.342Z,14.00
2023-01-17T12:59:16.130Z,13.88
2023-01-17T13:01:57.585Z,13.83
2023-01-17T13:04:28.968Z,13.86
2023-01-17T13:06:58.961Z,13.74
2023-01-17T13:09:35.566Z,13.65
2023-01-17T13:12:16.593Z,13.60
2023-01-17T13:14:46.475Z,13.60
2023-01-17T13:17:24.189Z,13.57
2023-01-17T13:20:06.577Z,13.58
2023-01-17T13:22:33.976Z,13.58
2023-01-17T13:25:12.878Z,13.60
2023-01-17T13:27:56.063Z,13.55
2023-01-17T13:30:43.392Z,13.52
2023-01-17T13:33:40.893Z,13.51
2023-01-17T13:36:30.035Z,13.55
2023-01-17T13:39:36.715Z,13.61
2023-01-17T13:42:48.966Z,13.72
2023-01-17T13:45:21.951Z,13.72
2023-01-17T13:47:50.323Z,13.62
2023-01-17T13:50:32.611Z,13.50
2023-01-17T13:53:01.136Z,13.45
2023-01-17T13:55:53.461Z,13.44
2023-01-17T13:58:30.633Z,13.51
2023-01-17T14:00:57.884Z,13.52
2023-01-17T14:03:47.680Z,13.49
2023-01-17T14:06:36.160Z,13.41
2023-01-17T14:09:18.676Z,13.32
2023-01-17T14:12:03.467Z,13.28
2023-01-17T14:14:45.521Z,13.20
2023-01-17T14:17:18.334Z,13.25
2023-01-17T14:19:50.780Z,13.23
2023-01-17T14:22:20.055Z,13.21
2023-01-17T14:25:11.870Z,13.17
2023-01-17T14:27:43.948Z,13.15
2023-01-17T14:30:17.826Z,13.03
2023-01-17T14:33:08.813Z,12.92
2023-01-17T14:35:41.215Z,12.93
2023-01-17T14:38:26.039Z,12.93
2023-01-17T14:40:56.520Z,12.83
2023-01-17T14:43:46.509Z,12.69
2023-01-17T14:46:18.792Z,12.57
2023-01-17T14:48:46.358Z,12.44
2023-01-17T14:51:15.247Z,12.37
2023-01-17T14:53:59.176Z,12.36
2023-01-17T14:56:28.267Z,12.35
2023-01-17T14:59:24.619Z,12.22
2023-01-17T15:02:06.521Z,12.05
2023-01-17T15:04:39.767Z,11.97
2023-01-17T15:07:07.265Z,11.89
2023-01-17T15:09:36.872Z,11.85
2023-01-17T15:12:04.760Z,11.73
2023-01-17T15:14:37.508Z,11.57
2023-01-17T15:17:14.162Z,11.49
2023-01-17T15:19:42.984Z,11.35
2023-01-17T15:22:10.558Z,11.31
2023-01-17T15:24:42.015Z,11.30
2023-01-17T15:27:13.000Z,11.28
2023-01-17T15:29:40.615Z,11.26
2023-01-17T15:32:08.265Z,11.20
2023-01-17T15:34:40.534Z,11.14
2023-01-17T15:37:33.857Z,11.08
2023-01-17T15:40:12.052Z,11.07
2023-01-17T15:42:39.616Z,11.00
2023-01-17T15:45:09.552Z,10.97
2023-01-17T15:47:41.244Z,10.91
2023-01-17T15:50:20.472Z,10.92
2023-01-17T15:52:51.076Z,10.90
2023-01-17T15:55:33.099Z,10.81
2023-01-17T15:58:00.582Z,10.66
2023-01-17T16:00:37.682Z,10.70
2023-01-17T16:03:34.183Z,10.70
2023-01-17T16:06:03.035Z,10.65
2023-01-17T16:08:40.187Z,10.63
2023-01-17T16:11:08.640Z,10.61
2023-01-17T16:13:38.818Z,10.59
2023-01-17T16:16:14.124Z,10.56
2023-01-17T16:18:41.352Z,10.55
2023-01-17T16:21:20.570Z,10.49
2023-01-17T16:23:48.011Z,10.43
2023-01-17T16:26:15.311Z,10.29
2023-01-17T16:28:44.931Z,10.23
2023-01-17T16:31:12.034Z,10.17
2023-01-17T16:33:39.630Z,10.13
2023-01-17T16:36:06.867Z,10.02
2023-01-17T16:38:33.747Z,10.03
2023-01-17T16:41:03.980Z,10.00
2023-01-17T16:43:30.850Z,9.94
2023-01-17T16:45:58.233Z,9.88
2023-01-17T16:48:27.635Z,9.84
2023-01-17T16:50:56.873Z,9.80
2023-01-17T16:53:28.309Z,9.77
2023-01-17T16:55:58.517Z,9.76
2023-01-17T16:58:25.908Z,9.68
2023-01-17T17:00:55.544Z,9.60
2023-01-17T17:03:23.005Z,9.53
2023-01-17T17:06:00.915Z,9.46
2023-01-17T17:08:29.730Z,9.38
2023-01-17T17:11:17.567Z,9.32
2023-01-17T17:13:46.306Z,9.30
2023-01-17T17:16:21.494Z,9.20
2023-01-17T17:18:54.273Z,9.19
2023-01-17T17:21:21.406Z,9.11
2023-01-17T17:23:51.128Z,9.01
2023-01-17T17:26:18.674Z,8.96
2023-01-17T17:28:45.673Z,8.92
2023-01-17T17:31:15.868Z,8.87
2023-01-17T17:33:46.133Z,8.90
2023-01-17T17:36:13.375Z,8.95
2023-01-17T17:39:00.769Z,8.91
2023-01-17T17:41:29.646Z,8.92
2023-01-17T17:43:57.227Z,8.96
2023-01-17T17:46:25.561Z,8.96
2023-01-17T17:48:56.110Z,8.97
2023-01-17T17:51:26.325Z,8.93
2023-01-17T17:54:01.932Z,8.94
2023-01-17T17:56:32.283Z,8.95
2023-01-17T17:59:00.469Z,8.94
2023-01-17T18:01:31.272Z,8.90
2023-01-17T18:04:02.140Z,8.88
2023-01-17T18:06:29.503Z,8.84
2023-01-17T18:08:56.601Z,8.81
2023-01-17T18:11:26.285Z,8.80
2023-01-17T18:13:55.152Z,8.76
2023-01-17T18:16:28.327Z,8.76
2023-01-17T18:18:57.065Z,8.79
2023-01-17T18:21:29.530Z,8.74
2023-01-17T18:24:09.341Z,8.83
2023-01-17T18:26:42.158Z,8.86
2023-01-17T18:29:11.267Z,8.93
2023-01-17T18:31:41.421Z,8.99
2023-01-17T18:34:14.158Z,9.06
2023-01-17T18:36:41.538Z,9.28
2023-01-17T18:39:13.940Z,9.32
2023-01-17T18:41:41.257Z,9.38
2023-01-17T18:44:09.028Z,9.42
2023-01-17T18:46:36.768Z,9.52
2023-01-17T18:49:06.877Z,9.51
2023-01-17T18:51:36.865Z,9.51
2023-01-17T18:54:06.929Z,9.44
2023-01-17T18:56:35.443Z,9.42
2023-01-17T18:59:05.973Z,9.31
2023-01-17T19:01:36.480Z,9.22
2023-01-17T19:04:05.424Z,9.10
2023-01-17T19:06:35.778Z,9.10
2023-01-17T19:09:07.713Z,9.19
2023-01-17T19:11:41.999Z,9.18
2023-01-17T19:14:10.401Z,9.16
2023-01-17T19:16:41.430Z,9.17
2023-01-17T19:19:11.031Z,9.21
2023-01-17T19:21:38.367Z,9.31
2023-01-17T19:24:10.358Z,9.43
2023-01-17T19:26:37.505Z,9.47
2023-01-17T19:29:07.349Z,9.53
2023-01-17T19:31:46.461Z,9.63
2023-01-17T19:34:50.676Z,9.66
2023-01-17T19:37:21.776Z,9.63
2023-01-17T19:39:51.634Z,9.62
2023-01-17T19:42:19.408Z,9.61
2023-01-17T19:44:46.774Z,9.79
2023-01-17T19:47:19.176Z,10.48
2023-01-17T19:49:46.247Z,10.71
2023-01-17T19:52:13.309Z,11.05
2023-01-17T19:54:41.115Z,11.09
2023-01-17T19:57:10.266Z,10.96
2023-01-17T19:59:37.171Z,10.99
2023-01-17T20:02:04.653Z,11.05
2023-01-17T20:04:32.114Z,11.11
2023-01-17T20:06:59.065Z,11.30
2023-01-17T20:09:25.926Z,11.51
2023-01-17T20:11:54.049Z,11.63
2023-01-17T20:14:30.299Z,11.76
2023-01-17T20:16:57.651Z,11.88
2023-01-17T20:19:30.005Z,11.75
2023-01-17T20:21:57.083Z,11.59
2023-01-17T20:24:24.322Z,11.54
2023-01-17T20:26:51.852Z,11.47
2023-01-17T20:29:18.997Z,11.55
2023-01-17T20:31:46.549Z,11.55
2023-01-17T20:34:14.480Z,11.58
2023-01-17T20:36:42.313Z,11.56
2023-01-17T20:39:11.259Z,11.54
2023-01-17T20:41:39.922Z,11.54
2023-01-17T20:44:10.845Z,11.79
2023-01-17T20:46:41.283Z,12.07
2023-01-17T20:49:16.417Z,12.23
2023-01-17T20:51:44.585Z,12.27
2023-01-17T20:54:19.274Z,12.47
2023-01-17T20:56:47.697Z,12.38
2023-01-17T20:59:20.425Z,12.50
2023-01-17T21:01:47.880Z,12.63
2023-01-17T21:04:16.729Z,12.73
2023-01-17T21:06:51.796Z,12.73
2023-01-17T21:09:21.479Z,12.73
2023-01-17T21:11:49.278Z,12.81
2023-01-17T21:14:16.919Z,12.83
2023-01-17T21:16:54.529Z,12.81
2023-01-17T21:19:22.725Z,12.77
2023-01-17T21:21:53.346Z,12.77
2023-01-17T21:24:20.425Z,12.78
2023-01-17T21:26:47.601Z,12.78
2023-01-17T21:29:16.794Z,12.74
2023-01-17T21:31:44.043Z,12.75
2023-01-17T21:34:15.699Z,12.70
2023-01-17T21:36:43.374Z,12.63
2023-01-17T21:39:16.359Z,12.56
2023-01-17T21:41:48.205Z,12.55
2023-01-17T21:44:22.529Z,12.52
2023-01-17T21:46:56.261Z,12.53
2023-01-17T21:49:26.341Z,12.51
2023-01-17T21:51:53.595Z,12.53
2023-01-17T21:54:45.717Z,12.51
2023-01-17T21:57:33.016Z,12.44
2023-01-17T22:00:00.365Z,12.44
2023-01-17T22:02:27.901Z,12.42
2023-01-17T22:04:56.326Z,12.43
2023-01-17T22:07:30.667Z,12.44
2023-01-17T22:09:57.721Z,12.46
2023-01-17T22:12:24.924Z,12.48
2023-01-17T22:14:52.802Z,12.50
2023-01-17T22:17:21.196Z,12.54
2023-01-17T22:19:48.249Z,12.47
2023-01-17T22:22:15.408Z,12.51
2023-01-17T22:24:42.528Z,12.53
2023-01-17T22:27:13.778Z,12.50
2023-01-17T22:29:44.324Z,12.62
2023-01-17T22:32:11.326Z,12.74
2023-01-17T22:34:47.017Z,12.74
2023-01-17T22:37:14.812Z,12.67
2023-01-17T22:39:47.911Z,12.66
2023-01-17T22:42:33.023Z,12.64
2023-01-17T22:45:00.719Z,12.64
2023-01-17T22:47:27.692Z,12.72
2023-01-17T22:49:54.474Z,12.68
2023-01-17T22:52:21.437Z,12.80
2023-01-17T22:54:48.332Z,12.77
2023-01-17T22:57:15.194Z,12.69
2023-01-17T22:59:43.240Z,12.64
2023-01-17T23:02:12.809Z,12.64
2023-01-17T23:04:41.644Z,12.65
2023-01-17T23:07:08.490Z,12.64
2023-01-17T23:09:39.444Z,12.62
2023-01-17T23:12:06.973Z,12.54
2023-01-17T23:14:56.347Z,12.52
2023-01-17T23:17:46.694Z,12.51
2023-01-17T23:20:15.029Z,12.49
2023-01-17T23:22:42.936Z,12.50
2023-01-17T23:25:12.321Z,12.47
2023-01-17T23:28:03.911Z,12.49
2023-01-17T23:30:37.730Z,12.43
2023-01-17T23:33:07.538Z,12.48
2023-01-17T23:35:41.475Z,12.48
2023-01-17T23:38:29.420Z,12.49
2023-01-17T23:41:26.847Z,12.52
2023-01-17T23:44:01.009Z,12.55
2023-01-17T23:46:30.269Z,12.49
2023-01-17T23:48:57.622Z,12.48
2023-01-17T23:51:25.979Z,12.56
2023-01-17T23:54:05.532Z,12.59
2023-01-17T23:56:32.817Z,12.56
2023-01-17T23:59:01.600Z,12.55
